Time;durP1;ratioP1;P1;durP2;ratioP2;P2;SDS_P1;SDS_P2;PMS_P1;PMS_P2;Temp;Humidity;BMP_temperature;BMP_pressure;BME280_temperature;BME280_humidity;BME280_pressure;Samples;Min_cycle;Max_cycle;Signal;HPM_P1;HPM_P2
2021/12/14 00:01:41;;;;;;;30.07;15.90;;;;;;;0.93;100.00;100287.69;1569515;91;21049;-68
2021/12/14 00:04:12;;;;;;;31.40;16.37;;;;;;;0.94;100.00;100299.57;1569486;91;21085;-68
2021/12/14 00:06:40;;;;;;;30.47;15.03;;;;;;;0.95;100.00;100303.08;1569866;91;21093;-68
2021/12/14 00:09:09;;;;;;;30.53;14.60;;;;;;;0.95;100.00;100296.42;1570210;91;21081;-68
2021/12/14 00:16:50;;;;;;;27.03;14.13;;;;;;;1.01;100.00;100297.36;1639228;87;21021;-68
2021/12/14 00:19:17;;;;;;;29.70;14.50;;;;;;;1.01;100.00;100287.16;1669564;86;21072;-69
2021/12/14 00:21:50;;;;;;;25.83;14.63;;;;;;;1.01;100.00;100276.51;1669434;86;21001;-68
2021/12/14 00:24:15;;;;;;;30.30;15.13;;;;;;;1.01;100.00;100278.72;1669842;85;21088;-68
2021/12/14 00:26:50;;;;;;;29.97;13.47;;;;;;;1.01;100.00;100266.73;1669575;86;21036;-68
2021/12/14 00:29:25;;;;;;;25.87;12.80;;;;;;;1.02;100.00;100267.09;1669539;86;21072;-68
2021/12/14 00:31:53;;;;;;;29.43;14.67;;;;;;;1.01;100.00;100261.41;1669486;86;21052;-68
2021/12/14 00:34:24;;;;;;;26.13;12.87;;;;;;;1.01;100.00;100276.05;1669203;86;21055;-67
2021/12/14 00:36:52;;;;;;;27.47;13.40;;;;;;;1.00;100.00;100265.02;1669773;85;21020;-69
2021/12/14 00:39:18;;;;;;;24.63;12.87;;;;;;;1.04;100.00;100264.33;1669540;86;21064;-68
2021/12/14 00:41:45;;;;;;;23.53;11.97;;;;;;;1.03;100.00;100259.48;1669462;86;21025;-68
2021/12/14 00:44:12;;;;;;;23.67;12.50;;;;;;;1.04;100.00;100273.16;1669560;86;21040;-68
2021/12/14 00:46:40;;;;;;;29.67;12.43;;;;;;;1.05;100.00;100265.56;1669414;86;21377;-68
2021/12/14 00:49:08;;;;;;;26.20;13.03;;;;;;;1.05;100.00;100264.22;1669524;86;21495;-69
2021/12/14 00:51:35;;;;;;;24.57;12.77;;;;;;;1.06;100.00;100259.28;1667449;86;21049;-69
2021/12/14 00:54:04;;;;;;;25.17;12.87;;;;;;;1.09;100.00;100260.87;1668599;86;21052;-68
2021/12/14 00:56:33;;;;;;;25.03;12.83;;;;;;;1.09;100.00;100257.72;1667889;86;20989;-67
2021/12/14 00:59:03;;;;;;;26.57;12.03;;;;;;;1.10;100.00;100250.12;1661944;86;21530;-68
2021/12/14 01:01:33;;;;;;;25.47;12.03;;;;;;;1.10;100.00;100260.77;1668850;86;21016;-69
2021/12/14 01:04:05;;;;;;;21.17;10.93;;;;;;;1.11;100.00;100265.61;1662229;86;21044;-69
2021/12/14 01:06:34;;;;;;;23.90;11.30;;;;;;;1.11;100.00;100256.29;1662335;86;21033;-68
2021/12/14 01:09:04;;;;;;;22.80;10.87;;;;;;;1.09;100.00;100260.38;1668921;86;21559;-69
2021/12/14 01:11:37;;;;;;;24.57;11.80;;;;;;;1.10;100.00;100263.44;1662082;86;21555;-68
2021/12/14 01:14:15;;;;;;;23.42;11.45;;;;;;;1.10;100.00;100256.78;1662207;86;21511;-69
2021/12/14 01:16:53;;;;;;;20.30;11.33;;;;;;;1.10;100.00;100251.45;1660455;86;21037;-69
2021/12/14 01:19:20;;;;;;;23.17;12.03;;;;;;;1.11;100.00;100251.80;1662674;86;21029;-68
2021/12/14 01:27:09;;;;;;;24.07;11.50;;;;;;;1.14;100.00;100261.41;1570245;90;21066;-69
2021/12/14 01:29:38;;;;;;;23.77;11.83;;;;;;;1.16;100.00;100261.31;1594279;90;21090;-68
2021/12/14 01:32:07;;;;;;;23.33;11.13;;;;;;;1.15;100.00;100263.09;1594296;90;21047;-68
2021/12/14 01:34:36;;;;;;;21.07;10.00;;;;;;;1.14;100.00;100262.25;1594407;90;21138;-68
2021/12/14 01:37:08;;;;;;;20.97;10.80;;;;;;;1.15;100.00;100264.44;1569056;90;21139;-69
2021/12/14 01:42:20;;;;;;;21.68;10.70;;;;;;;1.14;100.00;100256.09;1594485;90;21087;-69
2021/12/14 01:44:55;;;;;;;23.60;11.53;;;;;;;1.14;100.00;100266.73;1594564;90;21119;-69
2021/12/14 01:47:36;;;;;;;21.70;10.77;;;;;;;1.14;100.00;100274.24;1569081;91;21081;-69
2021/12/14 01:50:32;;;;;;;20.80;10.80;;;;;;;1.16;100.00;100271.97;1594664;90;21110;-70
2021/12/14 01:53:23;;;;;;;22.97;11.77;;;;;;;1.14;100.00;100270.25;1489709;95;21095;-68
2021/12/14 01:55:58;;;;;;;22.13;11.93;;;;;;;1.13;100.00;100267.23;1488380;96;21206;-69
2021/12/14 01:58:30;;;;;;;21.20;11.30;;;;;;;1.12;100.00;100273.50;1488551;96;21152;-69
2021/12/14 02:01:03;;;;;;;20.37;10.50;;;;;;;1.13;100.00;100269.02;1485864;95;21059;-67
2021/12/14 02:03:40;;;;;;;22.77;10.30;;;;;;;1.14;100.00;100262.74;1488501;96;21080;-68
2021/12/14 02:06:06;;;;;;;20.93;10.90;;;;;;;1.14;100.00;100261.41;1499213;96;21166;-68
2021/12/14 02:08:36;;;;;;;20.77;11.33;;;;;;;1.13;100.00;100256.58;1499155;96;21138;-68
2021/12/14 02:11:05;;;;;;;21.40;11.57;;;;;;;1.14;100.00;100248.94;1499178;96;21077;-67
2021/12/14 02:13:45;;;;;;;22.40;11.17;;;;;;;1.14;100.00;100249.42;1488319;96;21084;-69
2021/12/14 02:16:17;;;;;;;21.70;10.97;;;;;;;1.14;100.00;100248.09;1480557;97;21076;-69
2021/12/14 02:18:46;;;;;;;23.10;10.83;;;;;;;1.15;100.00;100244.45;1480470;97;21136;-68
2021/12/14 02:21:13;;;;;;;21.57;11.40;;;;;;;1.14;100.00;100246.27;1470212;97;21125;-68
2021/12/14 02:23:45;;;;;;;19.83;10.43;;;;;;;1.14;100.00;100250.27;1465074;93;21142;-69
2021/12/14 02:26:18;;;;;;;20.73;10.60;;;;;;;1.17;100.00;100250.55;1557217;92;21075;-68
2021/12/14 02:28:49;;;;;;;21.33;10.13;;;;;;;1.18;100.00;100244.25;1556134;92;21582;-69
2021/12/14 02:31:20;;;;;;;20.83;11.70;;;;;;;1.17;100.00;100243.89;1555837;92;21609;-68
2021/12/14 02:33:49;;;;;;;25.00;11.50;;;;;;;1.17;100.00;100243.02;1555977;92;21087;-68
2021/12/14 02:36:29;;;;;;;22.97;11.43;;;;;;;1.16;100.00;100242.67;1555901;92;21139;-69
2021/12/14 02:39:09;;;;;;;23.73;10.90;;;;;;;1.14;100.00;100232.95;1556039;92;21637;-68
2021/12/14 02:41:50;;;;;;;21.00;10.20;;;;;;;1.16;100.00;100236.85;1555811;92;21143;-67
2021/12/14 02:44:18;;;;;;;21.63;10.30;;;;;;;1.18;100.00;100237.59;1536304;92;21107;-68
2021/12/14 02:46:51;;;;;;;24.60;11.37;;;;;;;1.20;100.00;100237.48;1555871;92;21103;-69
2021/12/14 02:49:21;;;;;;;22.13;11.00;;;;;;;1.19;100.00;100241.09;1554371;92;21097;-68
2021/12/14 02:51:51;;;;;;;25.20;11.67;;;;;;;1.19;100.00;100242.44;1579372;91;21532;-68
2021/12/14 02:54:27;;;;;;;22.50;11.70;;;;;;;1.18;100.00;100244.74;1562859;91;21111;-69
2021/12/14 02:57:05;;;;;;;23.83;10.43;;;;;;;1.17;100.00;100241.69;1583599;91;21055;-69
2021/12/14 02:59:38;;;;;;;26.63;11.90;;;;;;;1.17;100.00;100251.89;1571238;91;21136;-68
2021/12/14 03:02:12;;;;;;;23.13;11.30;;;;;;;1.17;100.00;100257.22;1583098;87;21128;-68
2021/12/14 03:04:43;;;;;;;22.40;11.20;;;;;;;1.17;100.00;100250.55;1650470;87;21571;-69
2021/12/14 03:07:13;;;;;;;23.17;11.07;;;;;;;1.18;100.00;100252.73;1652347;87;21069;-67
2021/12/14 03:12:21;;;;;;;24.67;11.57;;;;;;;1.18;100.00;100240.25;1625171;87;21100;-67
2021/12/14 03:14:59;;;;;;;22.10;10.63;;;;;;;1.19;100.00;100227.78;1617556;89;21085;-69
2021/12/14 03:17:25;;;;;;;22.70;11.37;;;;;;;1.18;100.00;100219.44;1617649;89;21045;-69
2021/12/14 03:20:03;;;;;;;23.80;11.43;;;;;;;1.18;100.00;100223.43;1617605;89;21045;-68
2021/12/14 03:22:36;;;;;;;26.67;12.93;;;;;;;1.19;100.00;100225.12;1617751;89;21076;-67
2021/12/14 03:25:06;;;;;;;24.10;11.37;;;;;;;1.20;100.00;100225.50;1617814;89;21077;-69
2021/12/14 03:27:38;;;;;;;28.20;12.37;;;;;;;1.20;100.00;100222.84;1617803;89;21064;-69
2021/12/14 03:30:25;;;;;;;24.18;12.23;;;;;;;1.22;100.00;100218.25;1617823;89;21531;-68
2021/12/14 03:32:55;;;;;;;26.57;12.70;;;;;;;1.22;100.00;100221.80;1617523;89;21109;-68
2021/12/14 03:35:25;;;;;;;34.80;18.60;;;;;;;1.22;100.00;100231.57;1617865;89;21072;-69
2021/12/14 03:37:52;;;;;;;40.00;22.83;;;;;;;1.21;100.00;100237.39;1657334;86;21066;-69
2021/12/14 03:40:19;;;;;;;32.97;18.30;;;;;;;1.20;100.00;100241.00;1620063;86;21029;-68
2021/12/14 03:42:47;;;;;;;26.57;14.50;;;;;;;1.21;100.00;100249.87;1613802;87;21716;-68
2021/12/14 03:45:19;;;;;;;27.03;12.57;;;;;;;1.20;100.00;100244.99;1653935;87;21034;-68
2021/12/14 03:47:52;;;;;;;29.27;12.90;;;;;;;1.20;100.00;100241.00;1657173;87;21069;-69
2021/12/14 03:50:25;;;;;;;27.67;13.00;;;;;;;1.17;100.00;100241.69;1607336;89;21031;-67
2021/12/14 03:52:52;;;;;;;26.73;13.77;;;;;;;1.16;100.00;100252.83;1556985;92;21058;-69
2021/12/14 03:55:26;;;;;;;24.60;12.67;;;;;;;1.17;100.00;100262.55;1552852;92;21069;-68
2021/12/14 03:57:53;;;;;;;29.43;13.13;;;;;;;1.16;100.00;100258.16;1508796;95;21130;-68
2021/12/14 04:00:27;;;;;;;23.80;12.03;;;;;;;1.16;100.00;100263.48;1482278;97;21212;-69
2021/12/14 04:02:54;;;;;;;26.33;13.23;;;;;;;1.15;100.00;100271.09;1486453;95;21124;-67
2021/12/14 04:05:23;;;;;;;29.67;14.30;;;;;;;1.14;100.00;100281.39;1508904;95;21038;-69
2021/12/14 04:07:50;;;;;;;27.73;15.37;;;;;;;1.15;100.00;100284.41;1509668;94;21085;-67
2021/12/14 04:10:23;;;;;;;54.43;28.97;;;;;;;1.14;100.00;100282.23;1531745;94;21024;-69
2021/12/14 04:12:51;;;;;;;106.87;51.20;;;;;;;1.16;100.00;100281.29;1522566;94;21076;-70
2021/12/14 04:15:18;;;;;;;63.03;31.77;;;;;;;1.19;100.00;100275.73;1530080;94;21023;-69
2021/12/14 04:17:46;;;;;;;36.20;17.80;;;;;;;1.18;100.00;100271.37;1530538;94;21237;-68
2021/12/14 04:20:27;;;;;;;39.87;20.33;;;;;;;1.18;100.00;100274.88;1530577;94;21043;-69
2021/12/14 04:22:54;;;;;;;24.20;13.50;;;;;;;1.16;100.00;100274.63;1447889;98;21127;-67
2021/12/14 04:25:25;;;;;;;32.93;14.00;;;;;;;1.16;100.00;100274.63;1465634;98;21091;-68
2021/12/14 04:27:53;;;;;;;28.57;13.67;;;;;;;1.13;100.00;100265.89;1465468;98;21135;-68
2021/12/14 04:30:21;;;;;;;29.63;12.87;;;;;;;1.14;100.00;100275.58;1465612;98;21522;-70
2021/12/14 04:32:50;;;;;;;26.33;13.17;;;;;;;1.15;100.00;100269.76;1465574;98;21118;-69
2021/12/14 04:35:17;;;;;;;27.33;16.07;;;;;;;1.14;100.00;100277.39;1465524;98;21181;-69
2021/12/14 04:37:56;;;;;;;33.53;20.03;;;;;;;1.14;100.00;100281.39;1465618;98;21204;-69
2021/12/14 04:51:53;;;;;;;28.77;17.40;;;;;;;1.14;100.00;100280.06;1465688;98;21612;-68
2021/12/14 04:54:01;;;;;;;30.80;17.70;;;;;;;1.21;100.00;100299.14;1515041;92;21177;-68
2021/12/14 04:56:35;;;;;;;30.80;15.80;;;;;;;1.23;100.00;100296.73;1552962;92;21135;-68
2021/12/14 04:59:26;;;;;;;32.57;17.63;;;;;;;1.22;100.00;100290.18;1540761;92;21076;-69
2021/12/14 05:01:58;;;;;;;32.73;17.73;;;;;;;1.20;100.00;100280.95;1552387;92;21117;-70
2021/12/14 05:04:36;;;;;;;29.05;13.72;;;;;;;1.21;100.00;100285.34;1548887;93;21121;-69
2021/12/14 05:07:26;;;;;;;42.47;25.10;;;;;;;1.21;100.00;100294.66;1511083;95;21122;-69
2021/12/14 05:09:37;;;;;;;31.13;15.93;;;;;;;1.19;100.00;100293.92;1510734;94;21066;-69
2021/12/14 05:12:13;;;;;;;29.23;13.70;;;;;;;1.18;100.00;100285.54;1511185;93;21062;-68
2021/12/14 05:14:44;;;;;;;28.30;13.23;;;;;;;1.18;100.00;100268.72;1501986;96;21109;-68
2021/12/14 05:17:16;;;;;;;27.30;12.73;;;;;;;1.16;100.00;100272.81;1450952;96;21119;-69
2021/12/14 05:19:45;;;;;;;25.25;11.68;;;;;;;1.17;100.00;100281.64;1487615;94;21157;-69
2021/12/14 05:22:16;;;;;;;23.97;12.80;;;;;;;1.17;100.00;100285.64;1579658;91;21069;-69
2021/12/14 05:25:02;;;;;;;24.67;12.63;;;;;;;1.18;100.00;100298.02;1569620;91;21088;-68
2021/12/14 05:27:35;;;;;;;29.17;14.67;;;;;;;1.19;100.00;100297.04;1569787;91;21072;-68
2021/12/14 05:30:07;;;;;;;27.33;13.20;;;;;;;1.18;100.00;100316.66;1569587;91;21141;-68
2021/12/14 05:32:37;;;;;;;27.87;13.03;;;;;;;1.17;100.00;100313.16;1574945;90;21060;-70
2021/12/14 05:35:07;;;;;;;26.77;12.97;;;;;;;1.18;100.00;100304.67;1554834;92;21636;-69
2021/12/14 05:37:44;;;;;;;28.60;14.50;;;;;;;1.18;100.00;100308.18;1554912;92;21147;-68
2021/12/14 05:40:17;;;;;;;37.33;22.43;;;;;;;1.22;100.00;100314.16;1554882;92;21094;-69
2021/12/14 05:45:25;;;;;;;37.13;22.20;;;;;;;1.21;100.00;100318.64;1557074;92;21121;-69
2021/12/14 05:47:55;;;;;;;46.50;26.70;;;;;;;1.19;100.00;100325.88;1559983;92;21066;-69
2021/12/14 05:50:40;;;;;;;43.13;23.80;;;;;;;1.18;100.00;100330.83;1556953;92;21062;-70
2021/12/14 05:53:09;;;;;;;43.23;23.80;;;;;;;1.19;100.00;100327.67;1564609;91;21057;-68
2021/12/14 05:55:39;;;;;;;46.97;26.90;;;;;;;1.18;100.00;100329.48;1564832;92;21169;-69
2021/12/14 05:58:17;;;;;;;48.70;30.70;;;;;;;1.20;100.00;100326.23;1564943;92;21073;-70
2021/12/14 06:00:50;;;;;;;38.20;21.37;;;;;;;1.22;100.00;100319.02;1589282;90;21113;-69
2021/12/14 06:03:25;;;;;;;34.35;20.40;;;;;;;1.23;100.00;100311.39;1589625;90;21140;-68
2021/12/14 06:05:52;;;;;;;29.43;15.30;;;;;;;1.24;100.00;100309.11;1530788;92;21237;-70
2021/12/14 06:08:33;;;;;;;30.47;14.47;;;;;;;1.26;100.00;100309.02;1531065;94;21051;-69
2021/12/14 06:11:02;;;;;;;27.77;14.73;;;;;;;1.27;100.00;100314.20;1507762;95;21166;-69
2021/12/14 06:13:42;;;;;;;31.50;14.80;;;;;;;1.27;100.00;100316.03;1508989;95;22389;-70
2021/12/14 06:16:27;;;;;;;30.13;13.90;;;;;;;1.27;100.00;100316.88;1506777;95;21202;-69
2021/12/14 06:19:15;;;;;;;31.83;15.97;;;;;;;1.31;100.00;100310.39;1506537;95;21171;-69
2021/12/14 06:21:44;;;;;;;38.37;15.17;;;;;;;1.33;100.00;100312.47;1482798;95;21120;-68
2021/12/14 06:24:11;;;;;;;40.80;15.57;;;;;;;1.32;100.00;100311.23;1465944;96;21188;-66
2021/12/14 06:26:46;;;;;;;53.77;15.87;;;;;;;1.30;100.00;100318.00;1468327;98;21094;-69
2021/12/14 06:31:47;;;;;;;77.10;52.10;;;;;;;1.35;100.00;100311.49;1451316;98;21163;-68
2021/12/14 06:34:25;;;;;;;63.60;40.77;;;;;;;1.37;100.00;100306.45;1510542;94;21125;-69
2021/12/14 06:37:30;;;;;;;62.37;40.20;;;;;;;1.38;100.00;100305.96;1502025;95;21177;-70
2021/12/14 06:40:18;;;;;;;40.60;22.87;;;;;;;1.37;100.00;100314.94;1451704;98;21119;-69
2021/12/14 06:42:52;;;;;;;29.50;16.65;;;;;;;1.36;100.00;100330.05;1511311;94;21067;-69
2021/12/14 06:45:24;;;;;;;27.50;15.20;;;;;;;1.35;100.00;100328.81;1531054;94;21941;-69
2021/12/14 06:48:03;;;;;;;31.83;16.40;;;;;;;1.33;100.00;100345.78;1523292;92;21120;-69
2021/12/14 06:50:36;;;;;;;29.33;16.33;;;;;;;1.34;100.00;100349.28;1494664;93;21131;-69
2021/12/14 06:53:11;;;;;;;30.43;17.83;;;;;;;1.33;100.00;100339.61;1505197;95;21064;-68
2021/12/14 06:55:40;;;;;;;34.47;17.73;;;;;;;1.33;100.00;100349.77;1470378;98;21145;-67
2021/12/14 06:58:33;;;;;;;29.73;15.97;;;;;;;1.32;100.00;100353.38;1452827;98;21119;-74
2021/12/14 07:01:20;;;;;;;30.73;15.37;;;;;;;1.37;100.00;100360.23;1456741;98;21168;-73
2021/12/14 07:04:00;;;;;;;28.87;13.20;;;;;;;1.40;100.00;100365.33;1492333;95;21105;-72
2021/12/14 07:06:37;;;;;;;26.93;13.63;;;;;;;1.41;100.00;100347.06;1488120;95;21210;-74
2021/12/14 07:09:09;;;;;;;36.60;16.23;;;;;;;1.40;100.00;100352.87;1482378;97;21595;-73
2021/12/14 07:11:36;;;;;;;82.07;24.53;;;;;;;1.38;100.00;100332.16;1489178;95;21083;-73
2021/12/14 07:14:09;;;;;;;38.87;16.70;;;;;;;1.38;100.00;100337.94;1485688;95;21131;-72
2021/12/14 07:16:43;;;;;;;27.40;12.87;;;;;;;1.38;100.00;100339.27;1485784;95;21104;-71
2021/12/14 07:19:07;;;;;;;35.07;15.10;;;;;;;1.40;100.00;100338.23;1480959;95;21148;-73
2021/12/14 07:21:42;;;;;;;29.27;14.33;;;;;;;1.43;100.00;100343.81;1460365;97;21072;-71
2021/12/14 07:24:31;;;;;;;26.60;13.70;;;;;;;1.47;100.00;100338.63;1457365;97;22078;-75
2021/12/14 07:27:21;;;;;;;24.50;13.53;;;;;;;1.47;100.00;100349.30;1460269;97;21645;-73
2021/12/14 07:29:49;;;;;;;28.23;15.13;;;;;;;1.46;100.00;100347.12;1453047;98;21104;-72
2021/12/14 07:32:18;;;;;;;39.83;18.03;;;;;;;1.47;100.00;100347.96;1470692;96;21110;-73
2021/12/14 07:34:46;;;;;;;43.83;19.30;;;;;;;1.49;100.00;100344.73;1491569;95;21092;-69
2021/12/14 07:37:12;;;;;;;43.80;20.60;;;;;;;1.49;100.00;100350.06;1494718;95;21082;-72
2021/12/14 07:39:39;;;;;;;28.17;14.03;;;;;;;1.48;100.00;100347.02;1495503;95;21636;-69
2021/12/14 07:42:07;;;;;;;28.67;15.27;;;;;;;1.49;100.00;100346.07;1457083;97;21237;-69
2021/12/14 07:44:47;;;;;;;26.37;14.70;;;;;;;1.49;100.00;100346.07;1467556;96;21132;-69
2021/12/14 07:47:17;;;;;;;41.73;24.43;;;;;;;1.50;100.00;100350.42;1463638;97;21626;-71
2021/12/14 07:49:56;;;;;;;96.33;33.33;;;;;;;1.50;100.00;100350.42;1464750;97;21064;-68
2021/12/14 07:52:30;;;;;;;89.43;29.53;;;;;;;1.49;100.00;100360.73;1471991;97;21607;-70
2021/12/14 07:55:11;;;;;;;37.27;18.27;;;;;;;1.49;100.00;100369.56;1438364;99;21092;-69
2021/12/14 07:57:38;;;;;;;79.90;22.47;;;;;;;1.49;100.00;100368.23;1453418;98;21576;-71
2021/12/14 08:00:25;;;;;;;78.13;27.67;;;;;;;1.49;100.00;100364.23;1457850;97;21637;-69
2021/12/14 08:02:56;;;;;;;105.43;44.80;;;;;;;1.48;100.00;100365.67;1520163;94;21118;-70
2021/12/14 08:05:27;;;;;;;103.43;53.60;;;;;;;1.48;100.00;100355.01;1521460;94;21033;-70
2021/12/14 08:08:09;;;;;;;138.23;51.63;;;;;;;1.47;100.00;100350.17;1520539;94;21658;-71
2021/12/14 08:10:39;;;;;;;78.53;31.30;;;;;;;1.48;100.00;100348.34;1542099;92;21064;-70
2021/12/14 08:13:13;;;;;;;125.27;48.73;;;;;;;1.48;100.00;100343.86;1527795;92;21065;-72
2021/12/14 08:15:55;;;;;;;85.50;43.83;;;;;;;1.50;100.00;100342.42;1546624;92;21557;-73
2021/12/14 08:18:30;;;;;;;156.95;68.50;;;;;;;1.52;100.00;100339.17;1555290;91;21074;-73
2021/12/14 08:21:03;;;;;;;166.93;70.93;;;;;;;1.49;100.00;100342.07;1558207;86;21031;-72
2021/12/14 08:23:57;;;;;;;73.07;38.63;;;;;;;1.49;100.00;100340.25;1558767;91;21114;-75
2021/12/14 08:26:32;;;;;;;66.47;33.03;;;;;;;1.50;100.00;100346.42;1590262;87;21064;-73
2021/12/14 08:29:10;;;;;;;54.47;29.13;;;;;;;1.53;100.00;100334.72;1637931;87;21583;-72
2021/12/14 08:31:44;;;;;;;41.37;24.47;;;;;;;1.55;100.00;100334.12;1631041;87;21268;-70
2021/12/14 08:34:22;;;;;;;46.23;29.43;;;;;;;1.55;100.00;100328.80;1621430;87;22432;-72
2021/12/14 08:37:15;;;;;;;56.00;31.83;;;;;;;1.51;100.00;100325.00;1633718;87;21661;-72
2021/12/14 08:40:03;;;;;;;67.77;34.97;;;;;;;1.49;100.00;100334.08;1635931;87;21035;-70
2021/12/14 08:42:48;;;;;;;67.23;35.43;;;;;;;1.46;100.00;100316.96;1637937;87;21573;-70
2021/12/14 08:45:26;;;;;;;101.97;50.23;;;;;;;1.47;100.00;100323.52;1613059;87;21124;-70
2021/12/14 08:48:19;;;;;;;273.50;126.03;;;;;;;1.50;100.00;100308.63;1578943;87;21658;-72
2021/12/14 08:51:15;;;;;;;109.37;53.52;;;;;;;1.53;100.00;100303.58;1538726;93;21142;-72
2021/12/14 08:53:47;;;;;;;59.30;30.80;;;;;;;1.51;100.00;100301.51;1580270;90;21087;-69
2021/12/14 08:56:16;;;;;;;40.37;20.97;;;;;;;1.48;100.00;100297.23;1556020;92;21167;-69
2021/12/14 08:58:43;;;;;;;38.70;20.53;;;;;;;1.47;100.00;100310.65;1539171;93;21124;-68
2021/12/14 09:01:17;;;;;;;170.40;77.27;;;;;;;1.45;100.00;100308.58;1532590;94;21121;-68
2021/12/14 09:03:51;;;;;;;410.50;187.30;;;;;;;1.45;100.00;100302.79;1526422;93;21129;-69
2021/12/14 09:06:20;;;;;;;312.33;144.23;;;;;;;1.45;100.00;100310.78;1515836;93;21077;-70
2021/12/14 09:08:50;;;;;;;172.73;81.90;;;;;;;1.44;100.00;100298.41;1510664;95;21571;-70
2021/12/14 09:11:22;;;;;;;60.30;30.43;;;;;;;1.45;100.00;100296.59;1510282;95;21248;-70
2021/12/14 09:13:49;;;;;;;82.23;40.13;;;;;;;1.47;100.00;100292.00;1505599;93;21563;-68
2021/12/14 09:16:23;;;;;;;76.40;42.63;;;;;;;1.50;100.00;100284.64;1545656;91;21005;-70
2021/12/14 09:18:55;;;;;;;87.80;47.43;;;;;;;1.58;100.00;100280.61;1549473;91;21514;-69
2021/12/14 09:21:29;;;;;;;67.47;39.27;;;;;;;1.65;100.00;100273.41;1506675;94;21666;-70
2021/12/14 09:24:00;;;;;;;88.63;47.97;;;;;;;1.72;100.00;100261.83;1495046;95;21143;-75
2021/12/14 09:29:08;;;;;;;53.87;30.97;;;;;;;1.79;100.00;100263.09;1482234;96;21113;-71
2021/12/14 09:31:37;;;;;;;125.70;67.37;;;;;;;1.79;100.00;100275.55;1446965;98;21149;-71
2021/12/14 09:34:04;;;;;;;204.90;100.30;;;;;;;1.80;100.00;100271.45;1492889;95;21058;-70
2021/12/14 09:36:31;;;;;;;128.83;60.77;;;;;;;1.83;100.00;100270.40;1494756;95;21051;-72
2021/12/14 09:39:09;;;;;;;47.10;27.77;;;;;;;1.85;100.00;100270.64;1467971;95;21094;-73
2021/12/14 09:41:39;;;;;;;49.57;26.93;;;;;;;1.83;100.00;100261.91;1442181;98;21101;-71
2021/12/14 09:44:10;;;;;;;46.90;26.77;;;;;;;1.78;100.00;100267.20;1463184;98;22457;-73
2021/12/14 09:46:37;;;;;;;75.90;40.67;;;;;;;1.75;100.00;100280.74;1468879;96;21469;-74
2021/12/14 09:49:08;;;;;;;91.70;49.57;;;;;;;1.73;100.00;100294.17;1447169;98;21560;-73
2021/12/14 09:51:41;;;;;;;71.03;41.67;;;;;;;1.68;100.00;100289.64;1453807;97;21201;-74
2021/12/14 09:54:12;;;;;;;48.40;28.10;;;;;;;1.63;100.00;100290.45;1437313;98;21102;-70
2021/12/14 09:56:44;;;;;;;47.33;27.17;;;;;;;1.61;100.00;100276.38;1479590;95;21075;-71
2021/12/14 09:59:12;;;;;;;68.23;36.70;;;;;;;1.56;100.00;100270.52;1479944;95;21042;-73
2021/12/14 10:01:50;;;;;;;60.87;34.07;;;;;;;1.49;100.00;100274.95;1478184;95;21166;-70
2021/12/14 10:04:32;;;;;;;56.50;30.00;;;;;;;1.44;100.00;100266.91;1425152;99;21115;-70
2021/12/14 10:07:02;;;;;;;55.50;31.40;;;;;;;1.41;100.00;100271.13;1433157;98;21051;-71
2021/12/14 10:09:31;;;;;;;55.47;29.60;;;;;;;1.36;100.00;100276.76;1405403;100;21584;-73
2021/12/14 10:12:15;;;;;;;51.73;32.40;;;;;;;1.34;100.00;100273.35;1383478;102;21127;-74
2021/12/14 10:14:36;;;;;;;62.17;30.57;;;;;;;1.35;100.00;100264.41;1437578;98;21132;-71
2021/12/14 10:17:07;;;;;;;56.10;28.50;;;;;;;1.34;100.00;100256.03;1406940;102;21598;-70
2021/12/14 10:19:35;;;;;;;76.33;38.97;;;;;;;1.29;100.00;100252.38;1332951;104;21216;-72
2021/12/14 10:22:14;;;;;;;60.93;31.40;;;;;;;1.27;100.00;100259.59;1375062;104;21643;-72
2021/12/14 10:24:44;;;;;;;83.17;41.63;;;;;;;1.28;100.00;100245.81;1382769;101;21180;-72
2021/12/14 10:27:15;;;;;;;72.27;36.60;;;;;;;1.27;100.00;100235.61;1403996;102;21063;-71
2021/12/14 10:29:42;;;;;;;156.47;78.00;;;;;;;1.27;100.00;100233.44;1404536;101;21163;-73
2021/12/14 10:32:14;;;;;;;155.77;74.63;;;;;;;1.28;100.00;100236.00;1403804;101;21103;-75
2021/12/14 10:34:46;;;;;;;97.30;49.50;;;;;;;1.34;100.00;100237.37;1427391;100;21110;-70
2021/12/14 10:37:25;;;;;;;68.07;38.13;;;;;;;1.35;100.00;100231.11;1406032;101;21554;-71
2021/12/14 10:45:27;;;;;;;127.43;56.03;;;;;;;1.39;100.00;100239.73;1405709;97;21052;-70
2021/12/14 10:47:55;;;;;;;40.10;21.83;;;;;;;1.35;100.00;100232.89;1408450;101;21154;-71
2021/12/14 10:50:26;;;;;;;57.07;27.67;;;;;;;1.33;100.00;100233.87;1412868;100;21027;-72
2021/12/14 10:52:54;;;;;;;41.90;21.60;;;;;;;1.33;100.00;100237.87;1431290;99;21161;-72
2021/12/14 10:55:34;;;;;;;82.07;46.90;;;;;;;1.34;100.00;100238.71;1452657;97;21061;-72
2021/12/14 10:58:01;;;;;;;121.40;54.83;;;;;;;1.34;100.00;100245.38;1487197;96;21153;-71
2021/12/14 11:00:43;;;;;;;133.80;52.77;;;;;;;1.38;100.00;100240.23;1482565;96;21059;-72
2021/12/14 11:03:18;;;;;;;142.37;62.63;;;;;;;1.41;100.00;100239.98;1513295;93;21054;-74
2021/12/14 11:05:51;;;;;;;150.60;67.50;;;;;;;1.41;100.00;100234.66;1528324;93;21279;-71
2021/12/14 11:08:37;;;;;;;138.00;68.63;;;;;;;1.44;100.00;100237.11;1528807;93;21101;-71
2021/12/14 11:10:47;;;;;;;178.53;82.43;;;;;;;1.47;100.00;100244.91;1520861;93;21635;-70
2021/12/14 11:13:14;;;;;;;421.97;174.93;;;;;;;1.54;100.00;100244.00;1542617;91;21119;-71
2021/12/14 11:15:45;;;;;;;282.47;115.97;;;;;;;1.57;100.00;100239.76;1536823;92;21071;-69
2021/12/14 11:18:22;;;;;;;75.23;36.17;;;;;;;1.57;100.00;100229.59;1590156;89;21017;-69
2021/12/14 11:21:00;;;;;;;101.00;51.53;;;;;;;1.59;100.00;100240.98;1591341;89;21057;-70
2021/12/14 11:23:33;;;;;;;122.53;63.07;;;;;;;1.55;100.00;100244.84;1594474;89;21057;-70
2021/12/14 11:26:08;;;;;;;72.50;39.30;;;;;;;1.56;100.00;100235.41;1551856;91;21061;-72
2021/12/14 11:28:39;;;;;;;113.13;49.47;;;;;;;1.57;100.00;100234.92;1535120;92;21096;-72
2021/12/14 11:31:35;;;;;;;153.63;65.47;;;;;;;1.56;100.00;100248.73;1580834;89;21613;-72
2021/12/14 11:34:10;;;;;;;109.50;55.57;;;;;;;1.59;100.00;100251.65;1595275;88;21057;-71
2021/12/14 11:36:47;;;;;;;82.23;43.17;;;;;;;1.61;100.00;100247.94;1600412;88;21015;-71
2021/12/14 11:39:27;;;;;;;83.40;40.83;;;;;;;1.66;100.00;100230.27;1592688;89;21491;-70
2021/12/14 11:42:01;;;;;;;91.43;49.30;;;;;;;1.65;100.00;100228.09;1578973;89;21060;-73
2021/12/14 11:44:34;;;;;;;58.33;32.47;;;;;;;1.60;100.00;100230.71;1588511;89;21366;-73
2021/12/14 11:50:30;;;;;;;55.90;29.47;;;;;;;1.46;100.00;100227.20;1590025;89;21144;-74
2021/12/14 11:53:13;;;;;;;46.30;25.57;;;;;;;1.43;100.00;100222.08;1588767;89;21005;-71
2021/12/14 11:55:52;;;;;;;77.03;40.80;;;;;;;1.40;100.00;100218.77;1624320;86;21210;-72
2021/12/14 11:58:44;;;;;;;76.70;38.30;;;;;;;1.38;100.00;100221.58;1627976;88;21090;-74
2021/12/14 12:01:45;;;;;;;120.53;59.93;;;;;;;1.37;100.00;100225.67;1623496;88;21034;-71
2021/12/14 12:04:29;;;;;;;158.63;80.80;;;;;;;1.33;100.00;100211.72;1626618;88;21022;-72
2021/12/14 12:09:37;;;;;;;41.30;21.30;;;;;;;1.29;100.00;100240.84;1627954;88;21076;-72
2021/12/14 12:12:12;;;;;;;43.67;21.40;;;;;;;1.28;100.00;100244.48;1628123;88;21070;-73
2021/12/14 12:14:59;;;;;;;43.43;23.13;;;;;;;1.28;100.00;100248.48;1624599;87;21527;-73
2021/12/14 12:17:46;;;;;;;278.40;118.00;;;;;;;1.29;100.00;100239.51;1627795;88;21058;-71
2021/12/14 12:20:46;;;;;;;110.63;50.30;;;;;;;1.30;100.00;100245.23;1628155;88;21516;-72
2021/12/14 12:25:57;;;;;;;41.90;20.47;;;;;;;1.32;100.00;100268.13;1547671;92;21041;-72